Latest Weather Observations for Campania

IDT60901

Issued at 6:55 pm EDT Saturday 25 October 2014 (issued every 10 minutes, with the page automatically refreshed every 10 minutes)

About weather observations | Map of Hobart area stations | Latest observations for Hobart area | Other Formats
Station Details ID: 094212 Name: CAMPANIA (KINCORA) Lat: -42.69 Lon: 147.43 Height: 45.0 m
Data from the previous 72 hours. | See also: Recent months at Campania
Date/Time
EDT
Tmp

°C
App
Tmp
°C
Dew
Point
°C
Rel
Hum
%
Delta-T

°C
Wind Press
QNH
hPa
Press
MSL
hPa
Rain
since
9 am
mm
Dir
 
Spd
km/h
Gust
km/h
Spd
kts
Gust
kts
25/06:30pm 12.4 6.8 7.3 71 2.5 SSE 26 35 14 19 - - 0.0
25/06:00pm 13.0 7.9 7.7 70 2.6 SSE 24 30 13 16 - - 0.0
25/05:30pm 13.7 9.1 8.1 69 2.8 SSE 22 32 12 17 - - 0.0
25/05:00pm 14.1 8.7 8.1 67 3.0 SSE 26 33 14 18 - - 0.0
25/04:30pm 15.1 10.3 8.8 66 3.2 SSE 24 32 13 17 - - 0.0
25/04:00pm 15.1 10.3 9.0 67 3.1 SSE 24 33 13 18 - - 0.0
25/03:30pm 16.1 11.2 9.8 66 3.3 SSE 26 35 14 19 - - 0.0
25/03:00pm 15.7 10.1 10.2 70 2.9 SSE 30 39 16 21 - - 0.0
25/02:30pm 16.8 11.3 10.6 67 3.3 SSE 30 35 16 19 - - 0.0
25/02:00pm 17.3 12.7 9.7 61 4.0 SE 24 33 13 18 - - 0.0
25/01:30pm 18.0 13.7 9.4 57 4.5 SSE 22 32 12 17 - - 0.0
25/01:00pm 18.6 15.0 10.4 59 4.4 SSE 20 28 11 15 - - 0.0
25/12:30pm 17.6 14.0 10.7 64 3.7 SE 20 30 11 16 - - 0.0
25/12:00pm 18.0 14.6 11.1 64 3.7 ESE 20 30 11 16 - - 0.0
25/11:30am 17.1 13.5 10.5 65 3.5 SE 20 26 11 14 - - 0.0
25/11:00am 17.0 14.4 10.8 67 3.3 SSE 15 24 8 13 - - 0.0
25/10:30am 16.3 14.0 10.6 69 3.0 SSE 13 20 7 11 - - 0.0
25/10:00am 16.8 14.3 11.1 69 3.1 SE 15 20 8 11 - - 0.0
25/09:30am 15.7 14.0 11.1 74 2.5 S 11 15 6 8 - - 0.0
25/09:00am 16.4 14.7 12.4 77 2.2 ESE 13 20 7 11 - - 0.0
25/08:30am 14.7 12.7 11.5 81 1.7 SE 13 19 7 10 - - 0.0
25/08:00am 14.3 12.8 12.0 86 1.2 SSE 11 15 6 8 - - 0.0
25/07:30am 14.2 12.8 12.1 87 1.1 S 11 15 6 8 - - 0.0
25/07:00am 14.0 13.0 12.2 89 1.0 S 9 13 5 7 - - 0.0
25/06:30am 13.2 12.0 11.6 90 0.9 SSE 9 13 5 7 - - 0.0
25/06:00am 13.4 12.1 11.3 87 1.1 S 9 11 5 6 - - 0.0
25/05:30am 14.4 12.6 11.0 80 1.8 S 11 17 6 9 - - 0.0
25/05:00am 16.6 13.8 10.0 65 3.5 W 15 24 8 13 - - 0.0
25/04:30am 16.1 12.9 10.0 67 3.2 W 17 24 9 13 - - 0.0
25/04:00am 15.8 12.5 11.0 73 2.6 WNW 19 28 10 15 - - 0.0
25/03:30am 16.5 15.0 10.6 68 3.1 W 9 19 5 10 - - 0.0
25/03:21am 16.2 13.7 10.9 71 2.8 W 15 17 8 9 - - 0.0
25/03:00am 11.2 9.6 10.1 93 0.6 WNW 9 13 5 7 - - 0.0
25/02:30am 11.2 9.9 10.1 93 0.6 N 7 11 4 6 - - 0.0
25/02:00am 12.4 11.6 11.1 92 0.7 W 6 9 3 5 - - 0.0
25/01:30am 13.5 12.6 11.4 87 1.1 E 7 13 4 7 - - 0.0
25/01:00am 15.1 14.6 12.8 86 1.3 SSE 7 15 4 8 - - 0.0
25/12:30am 14.0 12.3 12.4 90 0.9 NW 13 15 7 8 - - 0.0
25/12:00am 13.5 13.7 11.7 89 1.0 WSW 2 9 1 5 - - 0.0
 
Date/Time
EDT
Tmp

°C
App
Tmp
°C
Dew
Point
°C
Rel
Hum
%
Delta-T

°C
Wind Press
QNH
hPa
Press
MSL
hPa
Rain
since
9 am
mm
Dir
 
Spd
km/h
Gust
km/h
Spd
kts
Gust
kts
24/11:30pm 14.0 14.6 12.0 88 1.1 CALM 0 6 0 3 - - 0.0
24/11:00pm 15.1 14.6 12.2 83 1.6 N 6 9 3 5 - - 0.0
24/10:30pm 16.0 14.4 12.9 82 1.7 NNE 13 15 7 8 - - 0.0
24/10:00pm 15.6 15.0 12.4 81 1.8 ENE 7 11 4 6 - - 0.0
24/09:30pm 16.7 14.0 12.8 78 2.2 N 19 24 10 13 - - 0.0
24/09:00pm 17.9 16.0 13.0 73 2.8 NNW 15 24 8 13 - - 0.0
24/08:30pm 17.3 16.1 12.8 75 2.5 NNE 11 15 6 8 - - 0.0
24/08:00pm 18.1 17.0 13.0 72 2.9 N 11 19 6 10 - - 0.0
24/07:30pm 17.6 16.2 13.5 77 2.3 N 13 17 7 9 - - 0.0
24/07:00pm 17.6 16.2 13.5 77 2.3 NE 13 19 7 10 - - 0.0
24/06:30pm 18.7 18.6 13.8 73 2.8 ENE 7 15 4 8 - - 0.0
24/06:00pm 18.4 17.1 13.7 74 2.7 ENE 13 19 7 10 - - 0.0
24/05:30pm 18.4 16.7 13.5 73 2.8 NE 15 20 8 11 - - 0.0
24/05:00pm 19.1 17.7 13.5 70 3.2 NE 13 17 7 9 - - 0.0
24/04:30pm 18.8 17.3 13.0 69 3.3 NE 13 19 7 10 - - 0.0
24/04:00pm 18.9 17.0 12.9 68 3.4 NE 15 20 8 11 - - 0.0
24/03:30pm 18.5 16.5 12.7 69 3.3 NNE 15 20 8 11 - - 0.0
24/03:00pm 18.3 15.8 12.3 68 3.3 NNE 17 22 9 12 - - 0.0
24/02:30pm 18.5 16.1 12.7 69 3.3 NNE 17 24 9 13 - - 0.0
24/02:00pm 18.0 14.9 12.2 69 3.2 NNE 20 28 11 15 - - 0.0
24/01:30pm 17.5 14.5 11.8 69 3.1 NNE 19 24 10 13 - - 0.0
24/01:00pm 17.2 13.9 11.5 69 3.1 NNE 20 28 11 15 - - 0.0
24/12:30pm 17.3 13.2 11.6 69 3.1 NNE 24 30 13 16 - - 0.0
24/12:00pm 17.1 12.9 11.2 68 3.2 N 24 35 13 19 - - 0.0
24/11:30am 16.5 12.9 10.4 67 3.2 NNE 20 26 11 14 - - 0.0
24/11:00am 15.3 11.1 9.9 70 2.8 NNE 22 32 12 17 - - 0.0
24/10:30am 14.7 10.7 9.1 69 2.9 N 20 28 11 15 - - 0.0
24/10:00am 14.4 10.3 8.8 69 2.8 N 20 30 11 16 - - 0.0
24/09:30am 13.8 9.6 8.4 70 2.7 N 20 28 11 15 - - 0.0
24/09:00am 9.5 7.7 7.3 86 1.0 SSE 6 9 3 5 - - 0.0
24/08:30am 8.5 7.4 6.8 89 0.8 ENE 2 7 1 4 - - 0.0
24/08:00am 7.1 6.2 6.2 94 0.4 CALM 0 0 0 0 - - 0.0
24/07:30am 5.4 4.3 5.0 97 0.2 CALM 0 6 0 3 - - 0.0
24/07:00am 3.6 1.8 3.3 98 0.1 N 2 7 1 4 - - 0.0
24/06:30am 1.8 0.0 1.4 97 0.2 CALM 0 4 0 2 - - 0.0
24/06:00am 1.7 -0.1 1.3 97 0.2 CALM 0 0 0 0 - - 0.0
24/05:30am 0.7 -1.6 0.1 96 0.2 W 2 6 1 3 - - 0.0
24/05:00am 1.9 -0.6 1.5 97 0.2 N 4 6 2 3 - - 0.0
24/04:30am 2.0 -0.9 1.4 96 0.2 ENE 6 9 3 5 - - 0.0
24/04:00am 2.9 -0.1 2.3 96 0.2 NNW 7 9 4 5 - - 0.0
24/03:30am 2.6 -0.8 2.0 96 0.2 NNE 9 11 5 6 - - 0.0
24/03:00am 2.2 0.0 1.3 94 0.3 N 2 7 1 4 - - 0.0
24/02:30am 2.2 -0.4 1.0 92 0.5 NNE 4 7 2 4 - - 0.0
24/02:00am 3.1 0.7 1.9 92 0.5 NW 4 7 2 4 - - 0.0
24/01:30am 4.2 1.4 3.0 92 0.5 N 7 9 4 5 - - 0.0
24/01:00am 4.4 1.8 3.1 91 0.5 N 6 9 3 5 - - 0.0
24/12:30am 4.8 2.0 3.3 90 0.6 N 7 9 4 5 - - 0.0
24/12:00am 5.0 3.5 2.9 86 0.9 CALM 0 0 0 0 - - 0.0
 
Date/Time
EDT
Tmp

°C
App
Tmp
°C
Dew
Point
°C
Rel
Hum
%
Delta-T

°C
Wind Press
QNH
hPa
Press
MSL
hPa
Rain
since
9 am
mm
Dir
 
Spd
km/h
Gust
km/h
Spd
kts
Gust
kts
23/11:30pm 6.1 4.3 3.3 82 1.2 S 2 6 1 3 - - 0.0
23/11:00pm 8.0 5.4 4.4 78 1.6 NNE 7 11 4 6 - - 0.0
23/10:30pm 6.2 3.7 3.9 85 1.0 NNW 6 7 3 4 - - 0.0
23/10:00pm 7.7 4.7 3.9 77 1.6 N 9 11 5 6 - - 0.0
23/09:30pm 9.4 6.1 4.6 72 2.1 N 11 15 6 8 - - 0.0
23/09:00pm 9.5 7.0 4.9 73 2.1 NNE 7 11 4 6 - - 0.0
23/08:30pm 9.5 7.0 4.7 72 2.1 NW 7 7 4 4 - - 0.0
23/08:00pm 11.0 8.1 4.7 65 2.9 NE 9 17 5 9 - - 0.0
23/07:30pm 11.7 8.8 4.7 62 3.2 NE 9 13 5 7 - - 0.0
23/07:00pm 13.0 9.4 4.9 58 3.7 ENE 13 19 7 10 - - 0.0
23/06:30pm 14.1 9.7 4.7 53 4.4 ENE 17 22 9 12 - - 0.0
23/06:00pm 15.4 11.9 5.3 51 4.8 E 13 22 7 12 - - 0.0
23/05:30pm 15.4 10.3 5.9 53 4.6 SSE 22 30 12 16 - - 0.0
23/05:00pm 15.7 10.6 6.2 53 4.6 SSE 22 30 12 16 - - 0.0
23/04:30pm 15.8 11.3 6.8 55 4.4 SSE 20 32 11 17 - - 0.0
23/04:00pm 16.2 11.8 6.6 53 4.7 SE 19 28 10 15 - - 0.0
23/03:30pm 16.7 12.1 6.5 51 5.0 SSE 20 30 11 16 - - 0.0
23/03:00pm 15.8 10.7 6.0 52 4.7 SSE 22 30 12 16 - - 0.0
23/02:30pm 16.1 11.6 6.3 52 4.8 SSE 19 28 10 15 - - 0.0
23/02:00pm 15.6 10.9 5.2 50 4.9 SE 19 26 10 14 - - 0.0
23/01:30pm 15.7 10.9 5.6 51 4.8 S 20 30 11 16 - - 0.0
23/01:00pm 15.3 10.4 5.2 51 4.8 S 20 30 11 16 - - 0.0
23/12:30pm 14.9 10.1 4.9 51 4.7 SE 19 28 10 15 - - 0.0
23/12:00pm 14.4 10.2 5.5 55 4.2 S 17 33 9 18 - - 0.0
23/11:30am 14.6 10.8 5.9 56 4.2 SSE 15 20 8 11 - - 0.0
23/11:00am 13.7 10.0 4.3 53 4.3 SE 13 20 7 11 - - 0.0
23/10:30am 13.4 9.2 4.0 53 4.3 S 15 20 8 11 - - 0.0
23/10:00am 12.5 8.0 4.2 57 3.8 S 17 28 9 15 - - 0.0
23/09:30am 12.3 7.9 5.0 61 3.4 S 17 26 9 14 - - 0.0
23/09:00am 11.9 7.5 4.6 61 3.3 SSE 17 26 9 14 - - 0.0
23/08:30am 12.1 7.3 4.6 60 3.4 S 19 26 10 14 - - 0.0
23/08:00am 11.0 5.8 3.8 61 3.2 SSE 20 30 11 16 - - 0.0
23/07:30am 11.1 6.6 4.3 63 3.1 SSE 17 24 9 13 - - 0.0
23/07:00am 10.9 6.5 4.8 66 2.8 SSE 17 22 9 12 - - 0.0
23/06:30am 10.8 6.0 4.7 66 2.8 SSE 19 24 10 13 - - 0.0
23/06:00am 10.8 6.9 5.3 69 2.5 SSE 15 20 8 11 - - 0.0
23/05:30am 10.7 6.8 5.3 69 2.5 SSE 15 20 8 11 - - 0.0
23/05:00am 10.8 5.9 5.3 69 2.5 SSE 20 28 11 15 - - 0.0
23/04:30am 11.0 7.1 6.9 76 1.9 S 17 24 9 13 - - 0.0
23/04:00am 11.1 6.1 6.6 74 2.1 SSE 22 37 12 20 - - 0.0
23/03:30am 11.3 5.6 6.8 74 2.1 SSE 26 35 14 19 - - 0.0
23/03:00am 11.5 5.6 7.4 76 2.0 SSE 28 39 15 21 - - 0.0
23/02:30am 11.8 6.9 8.6 81 1.6 S 24 37 13 20 - - 0.0
23/02:00am 12.2 7.9 9.4 83 1.4 S 22 32 12 17 - - 0.0
23/01:30am 12.7 8.2 9.9 83 1.4 SSE 24 39 13 21 - - 0.0
23/01:00am 13.3 8.9 10.3 82 1.6 SSE 24 41 13 22 - - 0.0
23/12:30am 13.8 9.7 10.0 78 2.0 SSE 22 32 12 17 - - 0.0
23/12:00am 13.8 9.0 10.2 79 1.9 S 26 37 14 20 - - 0.0
 
Date/Time
EDT
Tmp

°C
App
Tmp
°C
Dew
Point
°C
Rel
Hum
%
Delta-T

°C
Wind Press
QNH
hPa
Press
MSL
hPa
Rain
since
9 am
mm
Dir
 
Spd
km/h
Gust
km/h
Spd
kts
Gust
kts
22/11:30pm 13.9 9.5 10.3 79 1.9 S 24 35 13 19 - - 0.0
22/11:00pm 14.1 10.9 11.4 84 1.4 SSE 19 24 10 13 - - 0.0
22/10:30pm 13.8 13.2 11.8 88 1.1 S 6 7 3 4 - - 0.0
22/10:00pm 13.3 11.8 12.0 92 0.7 SSW 11 13 6 7 - - 0.0
22/09:30pm 12.4 11.0 11.0 91 0.7 SW 9 13 5 7 - - 0.0
22/09:00pm 13.2 11.6 11.4 89 1.0 S 11 15 6 8 - - 0.0
22/08:30pm 13.6 11.7 10.6 82 1.6 SSE 11 17 6 9 - - 0.0
22/08:00pm 14.9 11.2 9.3 69 2.9 SSE 19 26 10 14 - - 0.0
22/07:30pm 16.1 12.2 8.6 61 3.8 SSE 19 30 10 16 - - 0.0
22/07:00pm 18.3 15.0 9.4 56 4.7 SSE 17 22 9 12 - - 0.0

Latest Capital City Observations: Canberra | Sydney | Melbourne | Brisbane | Adelaide | Perth | Hobart | Darwin

Other Formats:

Comma delimited format used in spreadsheet applications
http://www.bom.gov.au/fwo/IDT60901/IDT60901.95972.axf

JavaScript Object Notation format (JSON) in row-major order
http://www.bom.gov.au/fwo/IDT60901/IDT60901.95972.json